createdAt,value
2022-08-03T00:01:41.146Z,20.97
2022-08-03T00:08:02.032Z,20.88
2022-08-03T00:14:25.175Z,20.78
2022-08-03T00:20:45.141Z,20.65
2022-08-03T00:27:08.170Z,20.55
2022-08-03T00:33:28.165Z,20.44
2022-08-03T00:39:51.147Z,20.33
2022-08-03T00:46:11.184Z,20.25
2022-08-03T00:52:34.170Z,20.2
2022-08-03T00:58:54.175Z,20.14
2022-08-03T01:05:17.159Z,20.03
2022-08-03T01:11:37.145Z,19.94
2022-08-03T01:18:00.186Z,19.86
2022-08-03T01:24:20.169Z,19.77
2022-08-03T01:30:43.163Z,19.7
2022-08-03T01:37:03.169Z,19.62
2022-08-03T01:43:55.621Z,19.56
2022-08-03T01:49:46.217Z,19.49
2022-08-03T01:56:09.142Z,19.42
2022-08-03T02:02:33.755Z,19.39
2022-08-03T02:08:52.193Z,19.28
2022-08-03T02:15:12.144Z,19.21
2022-08-03T02:21:56.190Z,19.15
2022-08-03T02:27:55.135Z,19.09
2022-08-03T02:34:18.150Z,19.05
2022-08-03T02:40:38.202Z,18.99
2022-08-03T02:47:01.150Z,18.91
2022-08-03T02:53:21.194Z,18.87
2022-08-03T02:59:44.141Z,18.82
2022-08-03T03:06:04.817Z,18.79
2022-08-03T03:12:27.161Z,18.75
2022-08-03T03:18:47.135Z,18.74
2022-08-03T03:25:10.166Z,18.71
2022-08-03T03:31:30.158Z,18.62
2022-08-03T03:37:53.140Z,18.64
2022-08-03T03:44:13.157Z,18.61
2022-08-03T03:50:36.157Z,18.58
2022-08-03T04:14:01.823Z,18.43
2022-08-03T04:20:19.156Z,18.39
2022-08-03T04:26:42.155Z,18.32
2022-08-03T04:33:02.181Z,18.28
2022-08-03T04:39:25.141Z,18.28
2022-08-03T04:45:45.178Z,18.31
2022-08-03T04:52:08.147Z,18.36
2022-08-03T04:58:28.161Z,18.42
2022-08-03T05:04:51.197Z,18.43
2022-08-03T05:11:11.142Z,18.47
2022-08-03T05:17:34.174Z,18.52
2022-08-03T05:23:54.142Z,18.58
2022-08-03T05:30:26.455Z,18.7
2022-08-03T05:36:37.155Z,18.84
2022-08-03T05:43:00.148Z,18.98
2022-08-03T05:49:20.218Z,19.1
2022-08-03T05:55:43.144Z,19.25
2022-08-03T06:02:03.220Z,19.44
2022-08-03T06:08:26.146Z,19.65
2022-08-03T06:14:46.135Z,19.85
2022-08-03T06:21:09.484Z,20.03
2022-08-03T06:27:30.336Z,20.23
2022-08-03T06:34:32.001Z,20.45
2022-08-03T06:40:13.754Z,20.67
2022-08-03T06:46:35.139Z,20.92
2022-08-03T06:52:55.176Z,21.16
2022-08-03T07:00:07.055Z,21.41
2022-08-03T07:05:38.166Z,21.65
2022-08-03T07:12:01.152Z,21.92
2022-08-03T07:18:24.625Z,22.16
2022-08-03T07:24:44.519Z,22.43
2022-08-03T07:31:04.140Z,22.72
2022-08-03T07:37:27.172Z,23.01
2022-08-03T07:43:47.146Z,23.27
2022-08-03T07:50:10.202Z,23.53
2022-08-03T07:56:30.156Z,23.8
2022-08-03T08:02:53.140Z,24.15
2022-08-03T08:09:13.170Z,24.51
2022-08-03T08:15:36.151Z,24.87
2022-08-03T08:22:02.180Z,25.22
2022-08-03T08:28:21.926Z,25.56
2022-08-03T08:34:39.156Z,25.95
2022-08-03T08:41:02.186Z,26.33
2022-08-03T08:47:24.207Z,26.76
2022-08-03T08:53:47.183Z,27.19
2022-08-03T09:00:07.149Z,27.55
2022-08-03T09:06:30.159Z,27.88
2022-08-03T09:12:50.153Z,28.25
2022-08-03T09:19:13.169Z,28.66
2022-08-03T09:25:33.159Z,28.96
2022-08-03T09:31:56.150Z,29.35
2022-08-03T09:38:16.173Z,29.57
2022-08-03T10:01:23.622Z,29.84
2022-08-03T10:07:45.872Z,30.23
2022-08-03T10:14:05.167Z,30.4
2022-08-03T10:20:28.137Z,30.42
2022-08-03T10:26:49.605Z,30.79
2022-08-03T10:33:49.209Z,31.21
2022-08-03T10:39:31.148Z,31.53
2022-08-03T10:45:54.179Z,31.7
2022-08-03T10:52:30.415Z,32.13
2022-08-03T10:58:37.178Z,32.29
2022-08-03T11:04:57.145Z,31.87
2022-08-03T11:11:20.166Z,31.85
2022-08-03T11:17:46.061Z,32.06
2022-08-03T11:24:06.559Z,32.7
2022-08-03T11:30:27.565Z,33.15
2022-08-03T11:36:46.143Z,33.59
2022-08-03T11:43:06.183Z,33.9
2022-08-03T11:49:29.179Z,33.98
2022-08-03T11:55:50.336Z,33.9
2022-08-03T12:02:13.171Z,34.02
2022-08-03T12:08:33.145Z,34.4
2022-08-03T12:14:56.172Z,34.86
2022-08-03T12:21:16.198Z,34.81
2022-08-03T12:27:39.176Z,34.79
2022-08-03T12:33:59.414Z,34.91
2022-08-03T12:40:25.124Z,34.68
2022-08-03T12:46:47.173Z,34.01
2022-08-03T12:53:05.157Z,33.77
2022-08-03T12:59:30.050Z,33.94
2022-08-03T13:05:50.152Z,33.98
2022-08-03T13:12:10.155Z,34.28
2022-08-03T13:18:33.173Z,35.07
2022-08-03T13:24:53.148Z,35.19
2022-08-03T13:31:16.171Z,35.76
2022-08-03T13:37:36.154Z,35.89
2022-08-03T13:44:25.330Z,36.25
2022-08-03T13:50:19.151Z,36.97
2022-08-03T13:56:42.182Z,37.45
2022-08-03T14:03:06.950Z,37.59
2022-08-03T14:09:25.150Z,37.74
2022-08-03T14:15:49.555Z,37.65
2022-08-03T14:22:08.153Z,37.09
2022-08-03T14:28:28.313Z,36.96
2022-08-03T14:34:51.152Z,36.48
2022-08-03T14:41:12.009Z,36.98
2022-08-03T14:47:34.474Z,37.63
2022-08-03T14:53:54.148Z,38.15
2022-08-03T15:00:17.182Z,38.22
2022-08-03T15:06:37.148Z,38.18
2022-08-03T15:13:00.155Z,38.27
2022-08-03T15:20:00.124Z,37.9
2022-08-03T15:26:01.966Z,37.24
2022-08-03T15:32:06.106Z,37.14
2022-08-03T15:48:13.084Z,37.13
2022-08-03T15:54:33.146Z,37.36
2022-08-03T16:00:56.231Z,37.74
2022-08-03T16:07:16.163Z,38.02
2022-08-03T16:14:05.061Z,38.16
2022-08-03T16:19:59.184Z,37.79
2022-08-03T16:26:22.153Z,37.84
2022-08-03T16:32:42.142Z,38.25
2022-08-03T16:39:05.231Z,38.14
2022-08-03T16:45:25.145Z,37.36
2022-08-03T16:51:50.195Z,36.56
2022-08-03T16:58:08.148Z,36.06
2022-08-03T17:04:31.186Z,35.38
2022-08-03T17:10:51.148Z,34.88
2022-08-03T17:17:16.098Z,34.52
2022-08-03T17:23:35.766Z,34.74
2022-08-03T17:29:57.154Z,34.98
2022-08-03T17:36:17.175Z,35.36
2022-08-03T17:42:40.150Z,35.81
2022-08-03T17:49:00.180Z,35.99
2022-08-03T17:55:51.035Z,35.74
2022-08-03T18:01:58.412Z,34.98
2022-08-03T18:08:10.999Z,34.19
2022-08-03T18:14:26.146Z,33.52
2022-08-03T18:20:49.223Z,33.13
2022-08-03T18:27:09.144Z,32.86
2022-08-03T18:34:15.912Z,32.52
2022-08-03T18:39:52.755Z,32.23
2022-08-03T18:46:15.178Z,31.93
2022-08-03T18:52:35.144Z,31.66
2022-08-03T18:59:00.111Z,31.4
2022-08-03T19:05:18.145Z,31.12
2022-08-03T19:12:11.393Z,30.75
2022-08-03T19:18:01.184Z,30.37
2022-08-03T19:24:24.161Z,30.05
2022-08-03T19:30:46.313Z,29.76
2022-08-03T19:37:07.143Z,29.42
2022-08-03T19:43:32.875Z,29.03
2022-08-03T19:49:57.778Z,28.7
2022-08-03T19:56:10.181Z,28.36
2022-08-03T20:02:33.136Z,28.07
2022-08-03T20:08:53.166Z,27.76
2022-08-03T20:15:18.224Z,27.57
2022-08-03T20:21:36.168Z,27.39
2022-08-03T20:28:05.890Z,27.24
2022-08-03T20:34:19.138Z,27.03
2022-08-03T20:40:43.345Z,26.82
2022-08-03T20:47:03.143Z,26.63
2022-08-03T20:53:31.139Z,26.57
2022-08-03T20:59:47.501Z,26.28
2022-08-03T21:06:09.226Z,26.1
2022-08-03T21:12:29.246Z,25.95
2022-08-03T21:29:34.109Z,25.59
2022-08-03T21:35:54.219Z,25.43
2022-08-03T21:42:17.248Z,25.24
2022-08-03T21:48:37.238Z,25.1
2022-08-03T21:55:00.223Z,25.06
2022-08-03T22:20:31.149Z,24.45
2022-08-03T22:26:51.196Z,24.39
2022-08-03T22:33:14.165Z,24.26
2022-08-03T22:39:34.210Z,24.12
2022-08-03T22:46:08.545Z,23.98
2022-08-03T22:52:17.140Z,23.83
2022-08-03T22:58:40.158Z,23.72
2022-08-03T23:05:00.165Z,23.57
2022-08-03T23:11:23.150Z,23.44
2022-08-03T23:17:57.734Z,23.37
2022-08-03T23:24:06.143Z,23.32
2022-08-03T23:30:31.232Z,23.25
2022-08-03T23:36:49.167Z,23.19
2022-08-03T23:43:09.180Z,23.1
2022-08-03T23:49:32.158Z,22.98
2022-08-03T23:55:52.176Z,22.92
